sensor_id;sensor_type;location;lat;lon;timestamp;P1;durP1;ratioP1;P2;durP2;ratioP2
25111;SDS011;13092;51.996;4.458;2023-07-16T03:22:24;13.32;;;5.43;;
25111;SDS011;13092;51.996;4.458;2023-07-16T03:28:38;14.80;;;6.70;;
25111;SDS011;13092;51.996;4.458;2023-07-16T03:56:08;24.27;;;18.55;;
25111;SDS011;13092;51.996;4.458;2023-07-16T03:58:37;19.77;;;17.92;;
25111;SDS011;13092;51.996;4.458;2023-07-16T04:01:05;22.60;;;20.17;;
25111;SDS011;13092;51.996;4.458;2023-07-16T04:03:33;18.02;;;16.23;;
25111;SDS011;13092;51.996;4.458;2023-07-16T04:06:02;19.00;;;15.38;;
25111;SDS011;13092;51.996;4.458;2023-07-16T04:08:31;18.80;;;12.98;;
25111;SDS011;13092;51.996;4.458;2023-07-16T04:10:59;15.82;;;12.23;;
25111;SDS011;13092;51.996;4.458;2023-07-16T04:13:29;16.40;;;11.32;;
25111;SDS011;13092;51.996;4.458;2023-07-16T04:15:58;15.38;;;10.02;;
25111;SDS011;13092;51.996;4.458;2023-07-16T04:18:27;17.60;;;8.77;;
25111;SDS011;13092;51.996;4.458;2023-07-16T04:20:55;15.55;;;7.90;;
25111;SDS011;13092;51.996;4.458;2023-07-16T04:23:24;13.52;;;8.00;;
25111;SDS011;13092;51.996;4.458;2023-07-16T04:25:52;22.00;;;8.38;;
25111;SDS011;13092;51.996;4.458;2023-07-16T04:28:21;14.23;;;8.85;;
25111;SDS011;13092;51.996;4.458;2023-07-16T04:30:51;14.25;;;9.02;;
25111;SDS011;13092;51.996;4.458;2023-07-16T04:33:19;13.77;;;7.80;;
25111;SDS011;13092;51.996;4.458;2023-07-16T04:35:48;11.35;;;7.07;;
25111;SDS011;13092;51.996;4.458;2023-07-16T04:38:16;15.80;;;7.47;;
25111;SDS011;13092;51.996;4.458;2023-07-16T04:40:44;17.38;;;6.10;;
25111;SDS011;13092;51.996;4.458;2023-07-16T04:43:13;9.77;;;5.97;;
25111;SDS011;13092;51.996;4.458;2023-07-16T04:45:43;13.95;;;6.28;;
25111;SDS011;13092;51.996;4.458;2023-07-16T04:48:14;11.52;;;5.70;;
25111;SDS011;13092;51.996;4.458;2023-07-16T04:50:43;13.55;;;5.97;;
25111;SDS011;13092;51.996;4.458;2023-07-16T04:53:11;14.23;;;4.82;;
25111;SDS011;13092;51.996;4.458;2023-07-16T04:55:39;13.20;;;5.40;;
25111;SDS011;13092;51.996;4.458;2023-07-16T04:58:11;12.20;;;5.57;;
25111;SDS011;13092;51.996;4.458;2023-07-16T05:01:04;13.30;;;4.95;;
25111;SDS011;13092;51.996;4.458;2023-07-16T05:03:34;13.27;;;4.97;;
25111;SDS011;13092;51.996;4.458;2023-07-16T05:06:04;10.48;;;4.70;;
25111;SDS011;13092;51.996;4.458;2023-07-16T05:08:32;14.85;;;5.20;;
25111;SDS011;13092;51.996;4.458;2023-07-16T05:11:01;10.93;;;4.75;;
25111;SDS011;13092;51.996;4.458;2023-07-16T05:13:32;12.93;;;6.15;;
25111;SDS011;13092;51.996;4.458;2023-07-16T05:16:08;12.57;;;5.35;;
25111;SDS011;13092;51.996;4.458;2023-07-16T05:35:15;11.35;;;4.68;;
25111;SDS011;13092;51.996;4.458;2023-07-16T05:42:37;19.75;;;5.35;;
25111;SDS011;13092;51.996;4.458;2023-07-16T05:45:53;18.80;;;5.07;;
25111;SDS011;13092;51.996;4.458;2023-07-16T05:57:25;14.00;;;5.60;;
25111;SDS011;13092;51.996;4.458;2023-07-16T06:07:56;13.18;;;5.85;;
25111;SDS011;13092;51.996;4.458;2023-07-16T07:09:54;13.15;;;5.28;;
25111;SDS011;13092;51.996;4.458;2023-07-16T07:17:14;12.65;;;5.63;;
25111;SDS011;13092;51.996;4.458;2023-07-16T07:20:54;19.00;;;5.65;;
25111;SDS011;13092;51.996;4.458;2023-07-16T07:24:20;20.48;;;6.15;;
25111;SDS011;13092;51.996;4.458;2023-07-16T07:26:49;16.15;;;5.72;;
25111;SDS011;13092;51.996;4.458;2023-07-16T07:29:17;18.30;;;6.53;;
25111;SDS011;13092;51.996;4.458;2023-07-16T07:31:45;16.08;;;6.28;;
25111;SDS011;13092;51.996;4.458;2023-07-16T07:34:13;14.00;;;5.43;;
25111;SDS011;13092;51.996;4.458;2023-07-16T07:36:43;13.18;;;5.30;;
25111;SDS011;13092;51.996;4.458;2023-07-16T07:39:11;11.40;;;5.30;;
25111;SDS011;13092;51.996;4.458;2023-07-16T07:41:40;11.82;;;5.50;;
25111;SDS011;13092;51.996;4.458;2023-07-16T07:44:08;13.82;;;4.78;;
25111;SDS011;13092;51.996;4.458;2023-07-16T07:46:36;12.68;;;5.25;;
25111;SDS011;13092;51.996;4.458;2023-07-16T07:49:05;12.05;;;5.05;;
25111;SDS011;13092;51.996;4.458;2023-07-16T07:51:36;13.75;;;5.68;;
25111;SDS011;13092;51.996;4.458;2023-07-16T07:54:05;11.07;;;4.78;;
25111;SDS011;13092;51.996;4.458;2023-07-16T07:56:39;12.65;;;5.10;;
25111;SDS011;13092;51.996;4.458;2023-07-16T07:59:07;13.98;;;5.72;;
25111;SDS011;13092;51.996;4.458;2023-07-16T08:01:35;16.92;;;5.95;;
25111;SDS011;13092;51.996;4.458;2023-07-16T08:04:09;16.05;;;5.53;;
25111;SDS011;13092;51.996;4.458;2023-07-16T08:06:39;13.93;;;5.57;;
25111;SDS011;13092;51.996;4.458;2023-07-16T08:09:10;9.85;;;4.75;;
25111;SDS011;13092;51.996;4.458;2023-07-16T08:11:40;10.23;;;4.25;;
25111;SDS011;13092;51.996;4.458;2023-07-16T08:14:08;13.75;;;5.55;;
25111;SDS011;13092;51.996;4.458;2023-07-16T08:16:37;15.30;;;5.35;;
25111;SDS011;13092;51.996;4.458;2023-07-16T08:19:05;9.93;;;4.38;;
25111;SDS011;13092;51.996;4.458;2023-07-16T08:21:34;10.52;;;4.60;;
25111;SDS011;13092;51.996;4.458;2023-07-16T08:24:04;11.73;;;4.80;;
25111;SDS011;13092;51.996;4.458;2023-07-16T08:26:36;9.07;;;4.65;;
25111;SDS011;13092;51.996;4.458;2023-07-16T08:29:05;15.55;;;5.25;;
25111;SDS011;13092;51.996;4.458;2023-07-16T08:31:33;14.75;;;5.35;;
25111;SDS011;13092;51.996;4.458;2023-07-16T08:34:05;14.15;;;5.10;;
25111;SDS011;13092;51.996;4.458;2023-07-16T08:36:34;10.02;;;4.78;;
25111;SDS011;13092;51.996;4.458;2023-07-16T08:39:05;11.65;;;4.93;;
25111;SDS011;13092;51.996;4.458;2023-07-16T08:41:34;9.95;;;4.60;;
25111;SDS011;13092;51.996;4.458;2023-07-16T08:44:06;14.02;;;5.20;;
25111;SDS011;13092;51.996;4.458;2023-07-16T08:46:34;10.93;;;4.68;;
25111;SDS011;13092;51.996;4.458;2023-07-16T08:49:07;10.43;;;5.07;;
25111;SDS011;13092;51.996;4.458;2023-07-16T08:51:36;18.15;;;6.38;;
25111;SDS011;13092;51.996;4.458;2023-07-16T08:54:05;11.88;;;5.63;;
25111;SDS011;13092;51.996;4.458;2023-07-16T08:56:34;11.38;;;5.38;;
25111;SDS011;13092;51.996;4.458;2023-07-16T08:59:04;13.77;;;5.82;;
25111;SDS011;13092;51.996;4.458;2023-07-16T09:01:38;13.15;;;5.50;;
25111;SDS011;13092;51.996;4.458;2023-07-16T09:04:06;10.30;;;4.68;;
25111;SDS011;13092;51.996;4.458;2023-07-16T09:06:35;11.65;;;5.05;;
25111;SDS011;13092;51.996;4.458;2023-07-16T09:09:03;10.52;;;4.40;;
25111;SDS011;13092;51.996;4.458;2023-07-16T09:11:34;13.85;;;4.82;;
25111;SDS011;13092;51.996;4.458;2023-07-16T09:14:03;11.02;;;4.60;;
25111;SDS011;13092;51.996;4.458;2023-07-16T09:16:46;11.50;;;4.28;;
25111;SDS011;13092;51.996;4.458;2023-07-16T09:19:15;12.85;;;4.75;;
25111;SDS011;13092;51.996;4.458;2023-07-16T09:21:48;13.60;;;4.40;;
25111;SDS011;13092;51.996;4.458;2023-07-16T09:24:17;13.93;;;4.60;;
25111;SDS011;13092;51.996;4.458;2023-07-16T09:26:47;11.15;;;4.22;;
25111;SDS011;13092;51.996;4.458;2023-07-16T09:29:18;8.80;;;4.03;;
25111;SDS011;13092;51.996;4.458;2023-07-16T09:31:54;10.93;;;5.15;;
25111;SDS011;13092;51.996;4.458;2023-07-16T09:34:50;11.05;;;4.43;;
25111;SDS011;13092;51.996;4.458;2023-07-16T09:37:39;14.77;;;3.80;;
25111;SDS011;13092;51.996;4.458;2023-07-16T09:40:10;10.80;;;4.65;;
25111;SDS011;13092;51.996;4.458;2023-07-16T09:42:43;9.15;;;4.25;;
25111;SDS011;13092;51.996;4.458;2023-07-16T09:45:17;10.05;;;4.05;;
25111;SDS011;13092;51.996;4.458;2023-07-16T09:48:07;10.48;;;4.07;;
25111;SDS011;13092;51.996;4.458;2023-07-16T09:50:36;12.43;;;4.25;;
25111;SDS011;13092;51.996;4.458;2023-07-16T09:53:06;8.48;;;4.07;;
25111;SDS011;13092;51.996;4.458;2023-07-16T09:55:37;7.10;;;4.05;;
25111;SDS011;13092;51.996;4.458;2023-07-16T09:58:09;8.82;;;4.03;;
25111;SDS011;13092;51.996;4.458;2023-07-16T10:00:43;9.80;;;4.03;;
25111;SDS011;13092;51.996;4.458;2023-07-16T10:03:15;11.52;;;4.43;;
25111;SDS011;13092;51.996;4.458;2023-07-16T10:05:44;11.05;;;4.50;;
25111;SDS011;13092;51.996;4.458;2023-07-16T10:08:16;7.93;;;2.72;;
25111;SDS011;13092;51.996;4.458;2023-07-16T10:10:46;6.18;;;2.88;;
25111;SDS011;13092;51.996;4.458;2023-07-16T10:13:18;13.82;;;3.50;;
25111;SDS011;13092;51.996;4.458;2023-07-16T10:15:54;12.10;;;3.03;;
25111;SDS011;13092;51.996;4.458;2023-07-16T10:18:31;13.90;;;3.53;;
25111;SDS011;13092;51.996;4.458;2023-07-16T10:21:07;9.23;;;3.20;;
25111;SDS011;13092;51.996;4.458;2023-07-16T10:23:38;11.00;;;2.97;;
25111;SDS011;13092;51.996;4.458;2023-07-16T10:26:08;8.50;;;3.10;;
25111;SDS011;13092;51.996;4.458;2023-07-16T10:28:46;9.48;;;3.25;;
25111;SDS011;13092;51.996;4.458;2023-07-16T10:31:21;11.32;;;3.50;;
25111;SDS011;13092;51.996;4.458;2023-07-16T10:34:05;8.77;;;3.08;;
25111;SDS011;13092;51.996;4.458;2023-07-16T10:36:38;8.85;;;3.05;;
25111;SDS011;13092;51.996;4.458;2023-07-16T10:39:12;10.02;;;2.97;;
25111;SDS011;13092;51.996;4.458;2023-07-16T10:41:46;9.95;;;3.25;;
25111;SDS011;13092;51.996;4.458;2023-07-16T10:44:14;8.95;;;2.88;;
25111;SDS011;13092;51.996;4.458;2023-07-16T10:46:44;8.57;;;2.80;;
25111;SDS011;13092;51.996;4.458;2023-07-16T10:49:15;9.50;;;2.45;;
25111;SDS011;13092;51.996;4.458;2023-07-16T10:51:43;9.98;;;2.85;;
25111;SDS011;13092;51.996;4.458;2023-07-16T10:54:12;8.00;;;2.70;;
25111;SDS011;13092;51.996;4.458;2023-07-16T10:56:48;11.70;;;2.90;;
25111;SDS011;13092;51.996;4.458;2023-07-16T10:59:18;8.20;;;3.10;;
25111;SDS011;13092;51.996;4.458;2023-07-16T11:01:46;7.93;;;2.60;;
25111;SDS011;13092;51.996;4.458;2023-07-16T11:04:19;6.65;;;2.50;;
25111;SDS011;13092;51.996;4.458;2023-07-16T11:06:49;5.60;;;2.35;;
25111;SDS011;13092;51.996;4.458;2023-07-16T11:09:19;9.85;;;3.05;;
25111;SDS011;13092;51.996;4.458;2023-07-16T11:11:52;10.38;;;2.83;;
25111;SDS011;13092;51.996;4.458;2023-07-16T11:14:22;10.65;;;2.80;;
25111;SDS011;13092;51.996;4.458;2023-07-16T11:16:52;10.32;;;2.42;;
25111;SDS011;13092;51.996;4.458;2023-07-16T11:19:22;7.78;;;2.47;;
25111;SDS011;13092;51.996;4.458;2023-07-16T11:21:56;6.03;;;2.47;;
25111;SDS011;13092;51.996;4.458;2023-07-16T11:24:41;8.63;;;2.78;;
25111;SDS011;13092;51.996;4.458;2023-07-16T11:27:15;10.75;;;3.05;;
25111;SDS011;13092;51.996;4.458;2023-07-16T11:29:45;8.18;;;2.33;;
25111;SDS011;13092;51.996;4.458;2023-07-16T11:32:29;9.52;;;2.35;;
25111;SDS011;13092;51.996;4.458;2023-07-16T11:35:35;11.68;;;3.08;;
25111;SDS011;13092;51.996;4.458;2023-07-16T11:38:05;5.97;;;2.72;;
25111;SDS011;13092;51.996;4.458;2023-07-16T11:40:39;8.80;;;2.47;;
25111;SDS011;13092;51.996;4.458;2023-07-16T11:43:08;11.15;;;2.65;;
25111;SDS011;13092;51.996;4.458;2023-07-16T11:45:37;9.05;;;2.25;;
25111;SDS011;13092;51.996;4.458;2023-07-16T11:48:06;8.10;;;2.63;;
25111;SDS011;13092;51.996;4.458;2023-07-16T11:50:45;6.25;;;2.58;;
25111;SDS011;13092;51.996;4.458;2023-07-16T11:53:15;15.55;;;3.05;;
25111;SDS011;13092;51.996;4.458;2023-07-16T11:55:47;10.52;;;2.65;;
25111;SDS011;13092;51.996;4.458;2023-07-16T11:58:20;7.15;;;2.83;;
25111;SDS011;13092;51.996;4.458;2023-07-16T12:00:49;11.35;;;2.35;;
25111;SDS011;13092;51.996;4.458;2023-07-16T12:03:23;8.82;;;2.42;;
25111;SDS011;13092;51.996;4.458;2023-07-16T12:05:53;10.55;;;2.85;;
25111;SDS011;13092;51.996;4.458;2023-07-16T12:08:26;10.30;;;2.63;;
25111;SDS011;13092;51.996;4.458;2023-07-16T12:11:06;10.60;;;3.05;;
25111;SDS011;13092;51.996;4.458;2023-07-16T12:13:40;8.35;;;2.95;;
25111;SDS011;13092;51.996;4.458;2023-07-16T12:16:09;12.85;;;2.80;;
25111;SDS011;13092;51.996;4.458;2023-07-16T12:18:37;8.98;;;2.33;;
25111;SDS011;13092;51.996;4.458;2023-07-16T12:21:07;13.05;;;3.03;;
25111;SDS011;13092;51.996;4.458;2023-07-16T12:23:35;11.27;;;2.42;;
25111;SDS011;13092;51.996;4.458;2023-07-16T12:26:04;11.07;;;2.83;;
25111;SDS011;13092;51.996;4.458;2023-07-16T12:28:35;11.20;;;2.80;;
25111;SDS011;13092;51.996;4.458;2023-07-16T12:31:04;8.75;;;2.97;;
25111;SDS011;13092;51.996;4.458;2023-07-16T12:33:35;11.98;;;3.15;;
25111;SDS011;13092;51.996;4.458;2023-07-16T12:39:36;12.57;;;2.80;;
25111;SDS011;13092;51.996;4.458;2023-07-16T12:42:05;10.05;;;2.30;;
25111;SDS011;13092;51.996;4.458;2023-07-16T12:44:34;11.30;;;4.07;;
25111;SDS011;13092;51.996;4.458;2023-07-16T12:47:05;11.40;;;2.60;;
25111;SDS011;13092;51.996;4.458;2023-07-16T12:49:35;11.32;;;2.70;;
25111;SDS011;13092;51.996;4.458;2023-07-16T12:52:05;10.48;;;2.30;;
25111;SDS011;13092;51.996;4.458;2023-07-16T12:54:35;9.05;;;2.22;;
25111;SDS011;13092;51.996;4.458;2023-07-16T12:57:03;14.00;;;3.10;;
25111;SDS011;13092;51.996;4.458;2023-07-16T12:59:32;14.77;;;3.33;;
25111;SDS011;13092;51.996;4.458;2023-07-16T13:02:01;9.88;;;2.45;;
25111;SDS011;13092;51.996;4.458;2023-07-16T13:04:30;12.68;;;2.75;;
25111;SDS011;13092;51.996;4.458;2023-07-16T13:06:58;7.47;;;2.55;;
25111;SDS011;13092;51.996;4.458;2023-07-16T13:09:30;15.18;;;3.65;;
25111;SDS011;13092;51.996;4.458;2023-07-16T13:11:58;9.80;;;3.05;;
25111;SDS011;13092;51.996;4.458;2023-07-16T13:14:26;8.75;;;2.40;;
25111;SDS011;13092;51.996;4.458;2023-07-16T13:16:55;9.18;;;2.40;;
25111;SDS011;13092;51.996;4.458;2023-07-16T13:19:22;9.82;;;2.78;;
25111;SDS011;13092;51.996;4.458;2023-07-16T13:21:50;12.35;;;2.72;;
25111;SDS011;13092;51.996;4.458;2023-07-16T13:24:19;8.65;;;2.25;;
25111;SDS011;13092;51.996;4.458;2023-07-16T13:26:48;7.88;;;2.10;;
25111;SDS011;13092;51.996;4.458;2023-07-16T13:29:17;9.80;;;2.75;;
25111;SDS011;13092;51.996;4.458;2023-07-16T13:31:45;13.63;;;2.72;;
25111;SDS011;13092;51.996;4.458;2023-07-16T13:34:13;8.23;;;2.55;;
25111;SDS011;13092;51.996;4.458;2023-07-16T13:36:42;10.18;;;2.53;;
25111;SDS011;13092;51.996;4.458;2023-07-16T13:39:10;11.93;;;3.03;;
25111;SDS011;13092;51.996;4.458;2023-07-16T13:41:39;11.93;;;2.92;;
25111;SDS011;13092;51.996;4.458;2023-07-16T13:44:09;11.13;;;3.03;;
25111;SDS011;13092;51.996;4.458;2023-07-16T13:46:37;12.82;;;2.83;;
25111;SDS011;13092;51.996;4.458;2023-07-16T13:49:07;12.20;;;2.78;;
25111;SDS011;13092;51.996;4.458;2023-07-16T13:51:35;11.85;;;3.25;;
25111;SDS011;13092;51.996;4.458;2023-07-16T13:54:04;9.43;;;2.83;;
25111;SDS011;13092;51.996;4.458;2023-07-16T13:56:32;18.10;;;3.13;;
25111;SDS011;13092;51.996;4.458;2023-07-16T13:59:00;10.43;;;2.85;;
25111;SDS011;13092;51.996;4.458;2023-07-16T14:01:31;9.05;;;2.60;;
25111;SDS011;13092;51.996;4.458;2023-07-16T14:04:00;11.23;;;3.00;;
25111;SDS011;13092;51.996;4.458;2023-07-16T14:06:28;13.70;;;3.22;;
25111;SDS011;13092;51.996;4.458;2023-07-16T14:08:57;9.07;;;3.15;;
25111;SDS011;13092;51.996;4.458;2023-07-16T14:11:26;14.48;;;3.13;;
25111;SDS011;13092;51.996;4.458;2023-07-16T14:13:54;9.57;;;2.97;;
25111;SDS011;13092;51.996;4.458;2023-07-16T14:16:22;14.50;;;3.63;;
25111;SDS011;13092;51.996;4.458;2023-07-16T14:18:52;12.70;;;3.08;;
25111;SDS011;13092;51.996;4.458;2023-07-16T14:21:21;13.73;;;3.03;;
25111;SDS011;13092;51.996;4.458;2023-07-16T14:23:51;12.50;;;3.00;;
25111;SDS011;13092;51.996;4.458;2023-07-16T14:26:19;11.10;;;2.83;;
25111;SDS011;13092;51.996;4.458;2023-07-16T14:28:48;15.02;;;3.67;;
25111;SDS011;13092;51.996;4.458;2023-07-16T14:31:16;14.45;;;3.33;;
25111;SDS011;13092;51.996;4.458;2023-07-16T14:33:44;12.88;;;2.95;;
25111;SDS011;13092;51.996;4.458;2023-07-16T14:36:14;13.43;;;3.17;;
25111;SDS011;13092;51.996;4.458;2023-07-16T14:38:43;10.10;;;3.08;;
25111;SDS011;13092;51.996;4.458;2023-07-16T14:41:11;13.32;;;3.63;;
25111;SDS011;13092;51.996;4.458;2023-07-16T14:43:39;13.98;;;3.10;;
25111;SDS011;13092;51.996;4.458;2023-07-16T14:46:08;16.25;;;3.60;;
25111;SDS011;13092;51.996;4.458;2023-07-16T14:48:42;12.38;;;4.00;;
25111;SDS011;13092;51.996;4.458;2023-07-16T14:51:11;12.40;;;3.80;;
25111;SDS011;13092;51.996;4.458;2023-07-16T14:53:41;14.10;;;3.00;;
25111;SDS011;13092;51.996;4.458;2023-07-16T14:56:10;12.55;;;3.42;;
25111;SDS011;13092;51.996;4.458;2023-07-16T14:58:38;11.80;;;2.80;;
25111;SDS011;13092;51.996;4.458;2023-07-16T15:01:06;14.90;;;3.58;;
25111;SDS011;13092;51.996;4.458;2023-07-16T15:03:35;14.60;;;3.47;;
25111;SDS011;13092;51.996;4.458;2023-07-16T15:06:03;15.38;;;3.45;;
25111;SDS011;13092;51.996;4.458;2023-07-16T15:08:33;12.20;;;3.58;;
25111;SDS011;13092;51.996;4.458;2023-07-16T15:11:02;10.75;;;2.72;;
25111;SDS011;13092;51.996;4.458;2023-07-16T15:13:30;8.82;;;3.05;;
25111;SDS011;13092;51.996;4.458;2023-07-16T15:15:58;14.55;;;3.25;;
25111;SDS011;13092;51.996;4.458;2023-07-16T15:18:29;10.57;;;3.03;;
25111;SDS011;13092;51.996;4.458;2023-07-16T15:20:57;11.85;;;2.88;;
25111;SDS011;13092;51.996;4.458;2023-07-16T15:23:27;10.98;;;3.22;;
25111;SDS011;13092;51.996;4.458;2023-07-16T15:26:04;15.05;;;3.70;;
25111;SDS011;13092;51.996;4.458;2023-07-16T15:28:35;15.48;;;3.53;;
25111;SDS011;13092;51.996;4.458;2023-07-16T15:31:06;10.38;;;3.10;;
25111;SDS011;13092;51.996;4.458;2023-07-16T16:09:15;10.70;;;2.35;;
25111;SDS011;13092;51.996;4.458;2023-07-16T16:11:43;7.10;;;2.40;;
25111;SDS011;13092;51.996;4.458;2023-07-16T16:14:12;7.32;;;2.28;;
25111;SDS011;13092;51.996;4.458;2023-07-16T16:16:42;7.05;;;2.10;;
25111;SDS011;13092;51.996;4.458;2023-07-16T16:19:30;8.50;;;2.10;;
25111;SDS011;13092;51.996;4.458;2023-07-16T16:22:01;9.43;;;2.13;;
25111;SDS011;13092;51.996;4.458;2023-07-16T16:24:31;10.63;;;2.50;;
25111;SDS011;13092;51.996;4.458;2023-07-16T16:26:59;9.43;;;2.45;;
25111;SDS011;13092;51.996;4.458;2023-07-16T16:29:28;9.05;;;2.17;;
25111;SDS011;13092;51.996;4.458;2023-07-16T16:31:57;6.97;;;1.90;;
25111;SDS011;13092;51.996;4.458;2023-07-16T16:34:25;8.02;;;2.20;;
25111;SDS011;13092;51.996;4.458;2023-07-16T16:36:54;6.32;;;2.00;;
25111;SDS011;13092;51.996;4.458;2023-07-16T16:39:22;7.97;;;2.20;;
25111;SDS011;13092;51.996;4.458;2023-07-16T16:41:52;7.93;;;2.33;;
25111;SDS011;13092;51.996;4.458;2023-07-16T16:44:21;11.88;;;2.65;;
25111;SDS011;13092;51.996;4.458;2023-07-16T16:46:49;9.43;;;3.15;;
25111;SDS011;13092;51.996;4.458;2023-07-16T16:49:18;11.68;;;3.45;;
25111;SDS011;13092;51.996;4.458;2023-07-16T16:51:47;9.43;;;2.63;;
25111;SDS011;13092;51.996;4.458;2023-07-16T16:54:16;9.82;;;2.92;;
25111;SDS011;13092;51.996;4.458;2023-07-16T16:56:44;12.00;;;2.88;;
25111;SDS011;13092;51.996;4.458;2023-07-16T16:59:14;8.55;;;2.60;;
25111;SDS011;13092;51.996;4.458;2023-07-16T17:01:43;9.25;;;2.58;;
25111;SDS011;13092;51.996;4.458;2023-07-16T17:04:11;5.78;;;2.30;;
25111;SDS011;13092;51.996;4.458;2023-07-16T17:06:40;10.18;;;3.05;;
25111;SDS011;13092;51.996;4.458;2023-07-16T17:09:08;9.82;;;2.70;;
25111;SDS011;13092;51.996;4.458;2023-07-16T17:11:39;10.70;;;2.88;;
25111;SDS011;13092;51.996;4.458;2023-07-16T17:14:07;10.77;;;2.85;;
25111;SDS011;13092;51.996;4.458;2023-07-16T17:16:37;8.68;;;3.17;;
25111;SDS011;13092;51.996;4.458;2023-07-16T17:19:06;7.95;;;2.50;;
25111;SDS011;13092;51.996;4.458;2023-07-16T17:21:34;14.02;;;3.25;;
25111;SDS011;13092;51.996;4.458;2023-07-16T17:24:04;8.18;;;2.80;;
25111;SDS011;13092;51.996;4.458;2023-07-16T17:26:33;8.95;;;2.50;;
25111;SDS011;13092;51.996;4.458;2023-07-16T17:29:01;10.52;;;3.17;;
25111;SDS011;13092;51.996;4.458;2023-07-16T17:31:30;6.80;;;2.42;;
25111;SDS011;13092;51.996;4.458;2023-07-16T17:34:02;11.70;;;3.05;;
25111;SDS011;13092;51.996;4.458;2023-07-16T17:36:33;7.63;;;2.75;;
25111;SDS011;13092;51.996;4.458;2023-07-16T17:39:02;12.43;;;2.85;;
25111;SDS011;13092;51.996;4.458;2023-07-16T17:41:30;8.20;;;2.67;;
25111;SDS011;13092;51.996;4.458;2023-07-16T17:44:01;9.88;;;2.25;;
25111;SDS011;13092;51.996;4.458;2023-07-16T17:46:30;9.75;;;2.78;;
25111;SDS011;13092;51.996;4.458;2023-07-16T17:48:59;10.48;;;3.22;;
25111;SDS011;13092;51.996;4.458;2023-07-16T17:51:30;10.50;;;2.60;;
25111;SDS011;13092;51.996;4.458;2023-07-16T17:53:58;12.20;;;3.08;;
25111;SDS011;13092;51.996;4.458;2023-07-16T17:56:27;10.40;;;3.00;;
25111;SDS011;13092;51.996;4.458;2023-07-16T17:58:59;12.40;;;3.53;;
25111;SDS011;13092;51.996;4.458;2023-07-16T18:01:28;8.45;;;2.85;;
25111;SDS011;13092;51.996;4.458;2023-07-16T18:03:58;10.32;;;2.83;;
25111;SDS011;13092;51.996;4.458;2023-07-16T18:06:29;8.90;;;2.60;;
25111;SDS011;13092;51.996;4.458;2023-07-16T18:08:58;11.70;;;2.67;;
25111;SDS011;13092;51.996;4.458;2023-07-16T18:11:29;9.05;;;2.53;;
25111;SDS011;13092;51.996;4.458;2023-07-16T18:13:58;11.27;;;3.25;;
25111;SDS011;13092;51.996;4.458;2023-07-16T18:16:27;10.63;;;2.90;;
25111;SDS011;13092;51.996;4.458;2023-07-16T18:18:56;11.73;;;2.70;;
25111;SDS011;13092;51.996;4.458;2023-07-16T18:21:25;10.75;;;2.50;;
25111;SDS011;13092;51.996;4.458;2023-07-16T18:24:09;6.65;;;2.40;;
25111;SDS011;13092;51.996;4.458;2023-07-16T18:26:38;8.85;;;2.78;;
25111;SDS011;13092;51.996;4.458;2023-07-16T18:29:06;10.20;;;2.55;;
25111;SDS011;13092;51.996;4.458;2023-07-16T18:31:35;16.02;;;3.97;;
25111;SDS011;13092;51.996;4.458;2023-07-16T18:34:04;10.70;;;2.80;;
25111;SDS011;13092;51.996;4.458;2023-07-16T18:36:35;11.77;;;2.70;;
25111;SDS011;13092;51.996;4.458;2023-07-16T18:39:06;6.47;;;2.38;;
25111;SDS011;13092;51.996;4.458;2023-07-16T18:41:37;8.43;;;2.38;;
25111;SDS011;13092;51.996;4.458;2023-07-16T18:44:07;8.32;;;2.60;;
25111;SDS011;13092;51.996;4.458;2023-07-16T18:46:36;11.90;;;2.70;;
25111;SDS011;13092;51.996;4.458;2023-07-16T18:49:06;9.80;;;2.50;;
25111;SDS011;13092;51.996;4.458;2023-07-16T18:51:35;6.20;;;2.53;;
25111;SDS011;13092;51.996;4.458;2023-07-16T18:54:06;8.07;;;2.63;;
25111;SDS011;13092;51.996;4.458;2023-07-16T18:56:35;10.65;;;3.35;;
25111;SDS011;13092;51.996;4.458;2023-07-16T18:59:05;6.72;;;2.67;;
25111;SDS011;13092;51.996;4.458;2023-07-16T19:01:33;10.25;;;3.20;;
25111;SDS011;13092;51.996;4.458;2023-07-16T19:04:02;11.77;;;2.60;;
25111;SDS011;13092;51.996;4.458;2023-07-16T19:06:34;16.90;;;10.13;;
25111;SDS011;13092;51.996;4.458;2023-07-16T19:09:02;16.05;;;7.00;;
25111;SDS011;13092;51.996;4.458;2023-07-16T19:11:31;14.43;;;6.13;;
25111;SDS011;13092;51.996;4.458;2023-07-16T19:14:01;14.20;;;7.82;;
25111;SDS011;13092;51.996;4.458;2023-07-16T19:16:32;16.52;;;8.48;;
25111;SDS011;13092;51.996;4.458;2023-07-16T19:19:00;20.17;;;11.70;;
25111;SDS011;13092;51.996;4.458;2023-07-16T19:21:28;28.38;;;14.50;;
25111;SDS011;13092;51.996;4.458;2023-07-16T19:23:57;52.60;;;30.73;;
25111;SDS011;13092;51.996;4.458;2023-07-16T19:26:27;42.95;;;24.48;;
25111;SDS011;13092;51.996;4.458;2023-07-16T19:28:55;19.63;;;12.43;;
25111;SDS011;13092;51.996;4.458;2023-07-16T19:31:26;13.80;;;5.85;;
25111;SDS011;13092;51.996;4.458;2023-07-16T19:33:55;19.83;;;8.57;;
25111;SDS011;13092;51.996;4.458;2023-07-16T19:36:23;30.42;;;14.70;;
25111;SDS011;13092;51.996;4.458;2023-07-16T19:38:52;9.43;;;4.53;;
25111;SDS011;13092;51.996;4.458;2023-07-16T19:41:20;11.25;;;4.88;;
25111;SDS011;13092;51.996;4.458;2023-07-16T19:43:49;17.65;;;7.40;;
25111;SDS011;13092;51.996;4.458;2023-07-16T19:46:18;20.30;;;10.85;;
25111;SDS011;13092;51.996;4.458;2023-07-16T19:48:48;56.13;;;34.15;;
25111;SDS011;13092;51.996;4.458;2023-07-16T19:51:17;24.95;;;13.40;;
25111;SDS011;13092;51.996;4.458;2023-07-16T19:53:47;25.00;;;13.30;;
25111;SDS011;13092;51.996;4.458;2023-07-16T19:56:16;19.23;;;10.27;;
25111;SDS011;13092;51.996;4.458;2023-07-16T19:58:48;16.52;;;4.72;;
25111;SDS011;13092;51.996;4.458;2023-07-16T20:01:17;14.75;;;5.57;;
25111;SDS011;13092;51.996;4.458;2023-07-16T20:03:50;15.55;;;5.80;;
25111;SDS011;13092;51.996;4.458;2023-07-16T20:06:20;19.70;;;9.88;;
25111;SDS011;13092;51.996;4.458;2023-07-16T20:08:49;14.90;;;5.32;;
25111;SDS011;13092;51.996;4.458;2023-07-16T20:11:18;15.85;;;4.82;;
25111;SDS011;13092;51.996;4.458;2023-07-16T20:13:46;17.90;;;4.72;;
25111;SDS011;13092;51.996;4.458;2023-07-16T20:16:16;13.35;;;5.65;;
25111;SDS011;13092;51.996;4.458;2023-07-16T20:18:51;12.60;;;3.53;;
25111;SDS011;13092;51.996;4.458;2023-07-16T20:21:20;15.55;;;5.00;;
25111;SDS011;13092;51.996;4.458;2023-07-16T20:23:49;11.05;;;3.47;;
25111;SDS011;13092;51.996;4.458;2023-07-16T20:26:17;12.68;;;3.33;;
25111;SDS011;13092;51.996;4.458;2023-07-16T20:28:46;10.55;;;3.88;;
25111;SDS011;13092;51.996;4.458;2023-07-16T20:31:14;21.73;;;7.88;;
25111;SDS011;13092;51.996;4.458;2023-07-16T20:33:42;18.00;;;7.68;;
25111;SDS011;13092;51.996;4.458;2023-07-16T20:36:18;18.95;;;11.18;;
25111;SDS011;13092;51.996;4.458;2023-07-16T20:38:48;16.60;;;9.10;;
25111;SDS011;13092;51.996;4.458;2023-07-16T20:41:17;14.70;;;8.20;;
25111;SDS011;13092;51.996;4.458;2023-07-16T20:43:45;11.82;;;6.10;;
25111;SDS011;13092;51.996;4.458;2023-07-16T20:46:14;16.35;;;9.40;;
25111;SDS011;13092;51.996;4.458;2023-07-16T20:48:43;13.88;;;7.90;;
25111;SDS011;13092;51.996;4.458;2023-07-16T20:51:11;15.20;;;9.63;;
25111;SDS011;13092;51.996;4.458;2023-07-16T20:53:41;16.67;;;15.00;;
25111;SDS011;13092;51.996;4.458;2023-07-16T20:56:11;18.08;;;16.35;;
25111;SDS011;13092;51.996;4.458;2023-07-16T20:58:41;20.90;;;19.17;;
25111;SDS011;13092;51.996;4.458;2023-07-16T21:01:12;22.75;;;20.40;;
25111;SDS011;13092;51.996;4.458;2023-07-16T21:03:43;28.67;;;26.30;;
25111;SDS011;13092;51.996;4.458;2023-07-16T21:06:11;32.65;;;30.05;;
25111;SDS011;13092;51.996;4.458;2023-07-16T21:08:41;33.20;;;30.75;;
25111;SDS011;13092;51.996;4.458;2023-07-16T21:11:10;37.20;;;34.28;;